»·PEaware :: N383SC KMFR-KRDM

N383SC :: KMFR-KRDM

FLIGHT INFORMATION

Flight Status: Arrived
Operator: Privately registered:
United States
More flights under this callsign
Pilot: Jamie M. (16133)
Aircraft: SOCATA TBM-900
(TBM9)
More flights by this aircraft type
Origin: KMFR Rogue Valley Intl-Medford
United States
Destination: KRDM Roberts
United States
More flights between these airports :: More routes between these airports
Route: BRUTE7 CUTTR V595 DSD
File this flight plan on PilotEdge
Remarks:
Altitude:
(Current/Filed)
15,000ft
Speed:
(Current/Filed)
250kts
Departed: 12-Nov-18 02:08 PM
Arrived: 12-Nov-18 03:05 PM
Distance/Time
Traveled:
136nm/0:56
Distance/Time
To Go:
Arrived

Flight Plot

Page will automatically refresh every two minutes.

Flight plan parsing failed; only flown route is shown


Map Options




Map Legend


Flown Route
Filed Route
Departure Airport
Arrival Airport
Navaid (VOR, NDB)
Fix

Horizontal Profiles

Position Reports

Time Latitude Longitude Heading Altitude Ground
Speed
12-Nov-18 13:26 42.371937 -122.878189 24 1315ft 0kts
12-Nov-18 13:27 42.371937 -122.878189 24 1315ft 0kts
12-Nov-18 13:28 42.371937 -122.878189 24 1315ft 0kts
12-Nov-18 13:29 42.371937 -122.878189 24 1315ft 0kts
12-Nov-18 13:30 42.371937 -122.878189 24 1315ft 0kts
12-Nov-18 13:31 42.371937 -122.878189 24 1315ft 0kts
12-Nov-18 13:32 42.371937 -122.878189 24 1315ft 0kts
12-Nov-18 13:33 42.371937 -122.878189 24 1315ft 0kts
12-Nov-18 13:34 42.371937 -122.878189 24 1315ft 0kts
12-Nov-18 13:35 42.371937 -122.878189 24 1315ft 0kts
12-Nov-18 13:36 42.371937 -122.878189 24 1315ft 0kts
12-Nov-18 13:37 42.371937 -122.878189 24 1315ft 0kts
12-Nov-18 13:38 42.371937 -122.878189 24 1315ft 0kts
12-Nov-18 13:39 42.371937 -122.878189 24 1315ft 0kts
12-Nov-18 13:40 42.371937 -122.878189 24 1315ft 0kts
12-Nov-18 13:41 42.371937 -122.878189 24 1316ft 0kts
12-Nov-18 13:42 42.371937 -122.878189 24 1316ft 0kts
12-Nov-18 13:43 42.371937 -122.878189 24 1316ft 0kts
12-Nov-18 13:44 42.371937 -122.878189 24 1316ft 0kts
12-Nov-18 13:45 42.371937 -122.878189 24 1316ft 0kts
12-Nov-18 13:46 42.371937 -122.878189 24 1316ft 0kts
12-Nov-18 13:47 42.371937 -122.878189 24 1316ft 0kts
12-Nov-18 13:48 42.371937 -122.878189 24 1316ft 0kts
12-Nov-18 13:49 42.371937 -122.878189 24 1316ft 0kts
12-Nov-18 13:50 42.371937 -122.878189 24 1316ft 0kts
12-Nov-18 13:51 42.371937 -122.878189 24 1316ft 0kts
12-Nov-18 13:52 42.371937 -122.878189 24 1316ft 0kts
12-Nov-18 13:53 42.371937 -122.878189 24 1316ft 0kts
12-Nov-18 13:54 42.371937 -122.878189 24 1316ft 0kts
12-Nov-18 13:55 42.371937 -122.878189 24 1316ft 0kts
12-Nov-18 13:56 42.371937 -122.878189 24 1316ft 0kts
12-Nov-18 13:57 42.371937 -122.878189 24 1316ft 0kts
12-Nov-18 13:58 42.372688 -122.878124 22 1314ft 1kts
12-Nov-18 13:59 42.372539 -122.877045 111 1315ft 8kts
12-Nov-18 14:00 42.371598 -122.874735 164 1317ft 6kts
12-Nov-18 14:01 42.370636 -122.873288 108 1317ft 6kts
12-Nov-18 14:02 42.369023 -122.871726 159 1321ft 7kts
12-Nov-18 14:03 42.367186 -122.870759 159 1326ft 8kts
12-Nov-18 14:04 42.364184 -122.869157 155 1334ft 7kts
12-Nov-18 14:05 42.363585 -122.868493 82 1335ft 0kts
12-Nov-18 14:06 42.363585 -122.868493 82 1335ft 0kts
12-Nov-18 14:07 42.363585 -122.868493 82 1335ft 0kts
12-Nov-18 14:08 42.363585 -122.868493 82 1335ft 0kts
12-Nov-18 14:09 42.363585 -122.868492 82 1335ft 0kts
12-Nov-18 14:10 42.364083 -122.867564 339 1338ft 0kts
12-Nov-18 14:11 42.389947 -122.874619 31 2508ft 138kts
12-Nov-18 14:12 42.401340 -122.824099 74 4695ft 152kts
12-Nov-18 14:13 42.412372 -122.768439 74 6738ft 157kts
12-Nov-18 14:14 42.405564 -122.712281 79 8574ft 161kts
12-Nov-18 14:15 42.414912 -122.652854 78 10246ft 164kts
12-Nov-18 14:16 42.432149 -122.597395 23 12322ft 172kts
12-Nov-18 14:17 42.475523 -122.578194 2 14442ft 176kts
12-Nov-18 14:18 42.530941 -122.580954 350 15043ft 235kts
12-Nov-18 14:19 42.594889 -122.613331 326 15030ft 262kts
12-Nov-18 14:20 42.649354 -122.678313 317 15019ft 268kts
12-Nov-18 14:21 42.707754 -122.727431 14 15001ft 264kts
12-Nov-18 14:22 42.762637 -122.665184 40 15016ft 263kts
12-Nov-18 14:23 42.824606 -122.614085 32 15017ft 263kts
12-Nov-18 14:24 42.885280 -122.561789 32 15017ft 263kts
12-Nov-18 14:25 42.945789 -122.509354 32 15017ft 263kts
12-Nov-18 14:26 43.005196 -122.457805 31 15017ft 262kts
12-Nov-18 14:27 43.064513 -122.406285 31 15017ft 262kts
12-Nov-18 14:28 43.122439 -122.355929 31 15018ft 262kts
12-Nov-18 14:29 43.173938 -122.310395 32 15019ft 262kts
12-Nov-18 14:30 43.215929 -122.273452 32 15018ft 262kts
12-Nov-18 14:31 43.286141 -122.211900 32 15018ft 262kts
12-Nov-18 14:32 43.335961 -122.168222 32 15018ft 263kts
12-Nov-18 14:33 43.403672 -122.108716 32 15060ft 261kts
12-Nov-18 14:34 43.462430 -122.056967 32 15107ft 261kts
12-Nov-18 14:35 43.512167 -122.016375 24 15133ft 261kts
12-Nov-18 14:36 43.584784 -121.960987 31 15137ft 262kts
12-Nov-18 14:37 43.633778 -121.916274 33 15137ft 262kts
12-Nov-18 14:38 43.691897 -121.859965 34 15136ft 262kts
12-Nov-18 14:39 43.748947 -121.803402 35 15136ft 262kts
12-Nov-18 14:40 43.805597 -121.746915 34 15136ft 262kts
12-Nov-18 14:41 43.860732 -121.691946 34 15136ft 262kts
12-Nov-18 14:42 43.918126 -121.634815 34 15136ft 262kts
12-Nov-18 14:43 43.975132 -121.578180 34 15136ft 262kts
12-Nov-18 14:44 44.031079 -121.523054 34 15136ft 262kts
12-Nov-18 14:45 44.089005 -121.466416 34 14859ft 269kts
12-Nov-18 14:46 44.132069 -121.424372 34 14586ft 272kts
12-Nov-18 14:47 44.187240 -121.370466 34 14235ft 273kts
12-Nov-18 14:48 44.224193 -121.333116 36 14145ft 269kts
12-Nov-18 14:49 44.257611 -121.302642 13 14122ft 266kts
12-Nov-18 14:50 44.325526 -121.293219 4 14165ft 264kts
12-Nov-18 14:51 44.395953 -121.285616 4 13642ft 278kts
12-Nov-18 14:52 44.465603 -121.272113 8 13162ft 274kts
12-Nov-18 14:53 44.535192 -121.258733 5 13163ft 267kts
12-Nov-18 14:54 44.601166 -121.234380 55 13142ft 266kts
12-Nov-18 14:55 44.591193 -121.140269 104 12344ft 276kts
12-Nov-18 14:56 44.565441 -121.048537 119 11018ft 260kts
12-Nov-18 14:57 44.525263 -120.969719 128 9663ft 259kts
12-Nov-18 14:58 44.475844 -120.901109 137 8305ft 257kts
12-Nov-18 14:59 44.419741 -120.848952 149 7257ft 240kts
12-Nov-18 15:00 44.364272 -120.820140 163 7115ft 223kts
12-Nov-18 15:01 44.314355 -120.827883 231 7134ft 208kts
12-Nov-18 15:02 44.279226 -120.883969 233 7114ft 198kts
12-Nov-18 15:03 44.264098 -120.953227 260 7114ft 193kts
12-Nov-18 15:04 44.261604 -121.024504 271 6215ft 177kts
12-Nov-18 15:05 44.261631 -121.080111 269 4435ft 126kts
12-Nov-18 15:06 44.263011 -121.120238 280 3871ft 103kts
12-Nov-18 15:07 44.254368 -121.150101 240 3070ft 43kts
12-Nov-18 15:08 44.254039 -121.153138 305 3069ft 0kts
12-Nov-18 15:09 44.254048 -121.153154 305 3069ft 1kts
12-Nov-18 15:10 44.255204 -121.155670 304 3063ft 11kts
12-Nov-18 15:11 44.256868 -121.154955 39 3061ft 10kts
12-Nov-18 15:12 44.258552 -121.155572 301 3058ft 0kts
12-Nov-18 15:13 44.258552 -121.155572 301 3058ft 0kts
12-Nov-18 15:14 44.258552 -121.155572 301 3058ft 0kts
12-Nov-18 15:15 44.258552 -121.155572 301 3058ft 0kts
12-Nov-18 15:16 44.258552 -121.155572 301 3058ft 0kts
12-Nov-18 15:17 44.258552 -121.155572 301 3058ft 0kts
12-Nov-18 15:18 44.258552 -121.155572 301 3058ft 0kts
12-Nov-18 15:19 44.258552 -121.155572 301 3058ft 0kts
12-Nov-18 15:20 44.258552 -121.155572 301 3058ft 0kts
12-Nov-18 15:21 44.258552 -121.155572 301 3058ft 0kts
12-Nov-18 15:22 44.258552 -121.155572 301 3058ft 0kts

Navigation Log

Ident Type
Flight plan parsing failed, navigation log unavailable